Time;durP1;ratioP1;P1;durP2;ratioP2;P2;SDS_P1;SDS_P2;PMS_P1;PMS_P2;Temp;Humidity;BMP_temperature;BMP_pressure;BME280_temperature;BME280_humidity;BME280_pressure;Samples;Min_cycle;Max_cycle;Signal;HPM_P1;HPM_P2
2022/05/20 00:01:14;;;;;;;;;2.00;2.00;;;;;21.79;46.53;101277.81;5050031;28;45818;-80
2022/05/20 00:03:52;;;;;;;;;1.25;1.00;;;;;21.67;46.96;101263.97;5051140;28;46566;-77
2022/05/20 00:06:17;;;;;;;;;2.25;1.00;;;;;21.67;46.52;101257.78;5052090;28;45558;-82
2022/05/20 00:08:43;;;;;;;;;3.00;1.25;;;;;21.68;46.56;101264.81;5047235;28;46116;-80
2022/05/20 00:11:09;;;;;;;;;1.75;1.75;;;;;21.69;46.63;101264.66;5053304;28;45833;-78
2022/05/20 00:13:34;;;;;;;;;2.00;1.25;;;;;21.71;46.81;101267.97;5051763;28;46098;-80
2022/05/20 00:16:00;;;;;;;;;2.00;2.00;;;;;21.63;46.69;101249.28;5054386;28;45834;-78
2022/05/20 00:21:01;;;;;;;;;2.25;2.25;;;;;21.68;46.75;101254.97;5056659;22;46023;-79
2022/05/20 00:23:26;;;;;;;;;1.00;1.00;;;;;21.68;46.81;101254.13;5034980;28;46186;-79
2022/05/20 00:25:52;;;;;;;;;1.50;1.50;;;;;21.63;46.91;101249.28;5025041;28;46567;-79
2022/05/20 00:31:49;;;;;;;;;2.00;2.00;;;;;21.49;46.49;101228.59;4972859;28;45994;-80
2022/05/20 00:34:14;;;;;;;;;0.75;0.75;;;;;21.60;45.97;101240.78;4961635;28;45965;-78
2022/05/20 00:36:39;;;;;;;;;1.00;1.00;;;;;21.55;45.83;101238.59;4967712;28;45938;-80
2022/05/20 00:39:05;;;;;;;;;1.75;1.00;;;;;21.62;45.83;101254.78;4970945;28;45737;-79
2022/05/20 00:41:30;;;;;;;;;1.25;1.25;;;;;21.58;45.50;101256.13;4974239;28;45737;-79
2022/05/20 00:43:58;;;;;;;;;1.75;1.75;;;;;21.56;45.44;101258.94;4974431;28;45810;-79
2022/05/20 00:46:26;;;;;;;;;2.00;1.00;;;;;21.52;45.14;101249.59;4960661;28;45815;-79
2022/05/20 00:49:12;;;;;;;;;1.00;1.00;;;;;21.50;44.71;101243.59;4970407;28;46441;-79
2022/05/20 00:51:43;;;;;;;;;1.00;1.00;;;;;21.50;44.22;101246.25;4970015;28;45913;-79
2022/05/20 00:54:23;;;;;;;;;1.00;0.75;;;;;21.51;44.37;101252.44;4966088;28;45752;-79
2022/05/20 00:57:04;;;;;;;;;0.00;0.00;;;;;21.46;44.06;101252.09;4971627;28;47013;-81
2022/05/20 00:59:35;;;;;;;;;0.75;0.75;;;;;21.41;44.26;101247.25;4961701;28;46517;-80
2022/05/20 01:02:10;;;;;;;;;0.50;0.50;;;;;21.35;44.53;101242.56;5007364;28;45801;-79
2022/05/20 01:04:37;;;;;;;;;1.25;1.00;;;;;21.35;44.04;101251.41;5034162;28;45870;-78
2022/05/20 01:07:12;;;;;;;;;1.00;0.50;;;;;21.35;44.47;101250.56;5016399;28;48398;-80
2022/05/20 01:09:39;;;;;;;;;1.75;0.75;;;;;21.33;44.40;101241.88;5026288;28;48113;-78
2022/05/20 01:12:06;;;;;;;;;2.00;1.00;;;;;21.38;44.92;101233.44;5035138;28;45683;-78
2022/05/20 01:14:39;;;;;;;;;0.75;0.75;;;;;21.34;44.50;101225.75;5036358;28;45768;-79
2022/05/20 01:17:16;;;;;;;;;0.75;0.75;;;;;21.18;44.61;101193.72;5033494;28;45680;-79
2022/05/20 01:19:51;;;;;;;;;3.00;1.00;;;;;21.31;44.38;101194.09;5010023;28;46292;-79
2022/05/20 01:22:37;;;;;;;;;1.00;0.75;;;;;21.38;44.48;101198.78;5018892;28;46267;-79
2022/05/20 01:25:04;;;;;;;;;0.75;0.75;;;;;21.29;44.45;101197.91;5013504;28;45621;-80
2022/05/20 01:27:30;;;;;;;;;0.75;0.75;;;;;21.34;44.04;101214.25;5014798;28;46984;-81
2022/05/20 01:29:58;;;;;;;;;1.75;1.25;;;;;21.30;44.62;101196.91;5013353;28;45798;-79
2022/05/20 01:32:29;;;;;;;;;1.50;1.50;;;;;21.19;44.28;101162.56;5013719;28;45771;-79
2022/05/20 01:34:55;;;;;;;;;1.00;1.00;;;;;21.28;44.26;101173.06;5013460;28;46424;-79
2022/05/20 01:37:21;;;;;;;;;0.75;0.75;;;;;21.33;44.13;101177.91;5027296;28;47209;-79
2022/05/20 01:39:47;;;;;;;;;0.50;0.25;;;;;21.31;43.79;101179.94;5013415;28;48222;-80
2022/05/20 01:42:26;;;;;;;;;0.75;0.75;;;;;21.28;44.18;101172.25;5015811;28;45727;-79
2022/05/20 01:45:52;;;;;;;;;1.75;1.00;;;;;21.30;44.03;101170.25;5006396;28;45956;-80
2022/05/20 01:48:48;;;;;;;;;0.50;0.50;;;;;21.16;44.07;101149.59;4955161;28;45693;-78
2022/05/20 01:51:30;;;;;;;;;1.00;1.00;;;;;21.26;44.44;101164.44;4948383;28;46988;-79
2022/05/20 01:54:04;;;;;;;;;0.75;0.75;;;;;21.22;44.42;101162.22;4951489;28;45736;-79
2022/05/20 01:56:41;;;;;;;;;2.00;1.50;;;;;21.26;44.53;101174.25;4946086;28;45691;-79
2022/05/20 01:59:21;;;;;;;;;1.00;1.00;;;;;21.13;44.46;101147.19;4942499;28;47761;-77
2022/05/20 02:01:58;;;;;;;;;1.00;1.00;;;;;21.25;44.31;101165.41;4955621;28;45763;-79
2022/05/20 02:04:32;;;;;;;;;2.00;1.50;;;;;21.14;44.50;101146.22;4961921;28;45819;-78
2022/05/20 02:07:22;;;;;;;;;2.00;1.00;;;;;21.16;44.75;101142.41;4959781;28;46383;-80
2022/05/20 02:10:35;;;;;;;;;1.00;1.00;;;;;21.20;45.04;101143.75;4957068;28;48954;-78
2022/05/20 02:23:54;;;;;;;;;1.75;1.00;;;;;21.12;45.47;101132.19;4821176;29;46123;-78
2022/05/20 02:26:28;;;;;;;;;2.25;1.50;;;;;21.14;45.40;101136.41;4818603;29;46134;-78
2022/05/20 02:29:03;;;;;;;;;2.00;2.00;;;;;21.07;45.38;101127.38;4855303;29;45813;-78
2022/05/20 02:31:45;;;;;;;;;1.25;1.00;;;;;21.13;46.05;101125.88;4859208;29;45860;-79
2022/05/20 02:34:10;;;;;;;;;1.50;1.50;;;;;21.11;45.89;101120.72;4856219;29;46694;-79
2022/05/20 02:36:36;;;;;;;;;1.75;1.75;;;;;21.05;45.85;101116.06;4856884;29;46652;-79
2022/05/20 02:42:03;;;;;;;;;2.50;1.75;;;;;21.14;45.94;101122.22;4840374;29;45854;-79
2022/05/20 02:44:31;;;;;;;;;1.25;1.25;;;;;21.09;45.98;101101.41;4839859;29;46656;-78
2022/05/20 02:46:56;;;;;;;;;2.75;2.00;;;;;21.19;45.75;101119.94;4838279;29;46383;-78
2022/05/20 02:49:49;;;;;;;;;2.00;1.50;;;;;21.23;45.65;101124.75;4821914;29;46151;-79
2022/05/20 02:55:38;;;;;;;;;1.75;1.75;;;;;21.15;45.74;101107.94;4857491;29;45836;-78
2022/05/20 03:04:33;;;;;;;;;2.00;1.00;;;;;21.07;46.06;101122.03;4845464;29;45989;-78
2022/05/20 03:06:59;;;;;;;;;1.50;1.25;;;;;21.04;46.07;101119.72;4856220;29;46725;-79
2022/05/20 03:09:25;;;;;;;;;3.00;1.25;;;;;20.97;46.15;101105.38;4856458;29;46618;-78
2022/05/20 03:11:51;;;;;;;;;1.75;1.50;;;;;21.05;46.08;101112.56;4853561;29;45835;-78
2022/05/20 03:21:35;;;;;;;;;2.50;1.25;;;;;20.93;46.75;101101.38;4875802;29;46581;-79
2022/05/20 03:24:01;;;;;;;;;1.75;1.50;;;;;20.89;46.53;101106.19;4893628;29;46047;-77
2022/05/20 03:26:28;;;;;;;;;1.50;1.50;;;;;20.97;46.21;101109.88;4893324;29;45752;-77
2022/05/20 03:32:50;;;;;;;;;2.75;2.00;;;;;20.77;46.51;101088.03;4906639;28;46293;-79
2022/05/20 03:35:16;;;;;;;;;2.00;2.00;;;;;20.91;46.32;101098.03;4946574;28;45927;-80
2022/05/20 03:37:42;;;;;;;;;1.75;1.75;;;;;20.89;46.45;101097.38;4949277;28;45955;-79
2022/05/20 03:40:08;;;;;;;;;2.00;1.00;;;;;20.91;46.53;101111.34;4949903;28;46659;-78
2022/05/20 03:42:33;;;;;;;;;1.50;0.75;;;;;20.89;46.46;101106.19;4955610;28;46278;-79
2022/05/20 03:44:59;;;;;;;;;1.75;1.00;;;;;20.88;46.76;101104.53;4950046;28;45658;-78
2022/05/20 03:47:24;;;;;;;;;2.25;1.50;;;;;20.75;46.54;101076.69;4949383;28;45628;-78
2022/05/20 03:49:50;;;;;;;;;1.50;0.75;;;;;20.80;46.63;101085.03;4948175;28;46432;-78
2022/05/20 03:52:15;;;;;;;;;2.75;1.00;;;;;20.79;46.71;101091.34;4948164;28;46740;-82
2022/05/20 03:54:42;;;;;;;;;2.00;1.25;;;;;20.70;46.97;101076.34;4966557;28;45786;-79
2022/05/20 03:57:08;;;;;;;;;2.00;2.00;;;;;20.69;46.92;101082.66;4968731;28;45942;-79
2022/05/20 03:59:36;;;;;;;;;2.25;2.00;;;;;20.67;47.15;101082.03;5005890;28;47069;-79
2022/05/20 04:02:09;;;;;;;;;1.00;1.00;;;;;20.66;47.36;101077.69;5008888;28;46186;-79
2022/05/20 04:04:46;;;;;;;;;1.25;1.25;;;;;20.67;46.92;101082.84;5010121;28;45732;-79
2022/05/20 04:07:18;;;;;;;;;1.75;1.75;;;;;20.63;47.23;101070.84;5006939;28;45748;-78
2022/05/20 04:09:43;;;;;;;;;1.50;1.50;;;;;20.59;47.30;101074.81;5009756;28;48580;-79
2022/05/20 04:12:35;;;;;;;;;1.00;1.00;;;;;20.63;47.71;101076.16;5015081;28;45745;-79
2022/05/20 04:15:47;;;;;;;;;4.00;3.00;;;;;20.68;47.80;101078.34;5015250;28;45680;-79
2022/05/20 04:18:13;;;;;;;;;4.50;3.00;;;;;20.59;47.79;101058.84;4991734;28;47281;-80
2022/05/20 04:20:38;;;;;;;;;4.50;4.50;;;;;20.59;47.97;101064.19;5009752;28;45627;-81
2022/05/20 04:26:39;;;;;;;;;6.00;4.50;;;;;20.48;48.05;101067.97;4939370;28;45756;-78
2022/05/20 04:29:07;;;;;;;;;6.00;4.75;;;;;20.53;48.08;101086.13;4926510;28;45693;-80
2022/05/20 04:31:32;;;;;;;;;5.50;4.50;;;;;20.54;48.20;101085.13;4948212;28;45927;-80
2022/05/20 04:33:58;;;;;;;;;6.00;5.00;;;;;20.52;48.76;101073.81;4942143;28;46359;-81
2022/05/20 04:36:23;;;;;;;;;3.00;3.00;;;;;20.55;48.42;101083.31;4945322;28;45883;-79
2022/05/20 04:38:48;;;;;;;;;4.00;3.00;;;;;20.63;48.44;101100.13;4938773;28;45776;-80
2022/05/20 04:48:15;;;;;;;;;2.25;2.00;;;;;20.60;48.23;101070.34;4835412;29;45999;-78
2022/05/20 05:06:12;;;;;;;;;2.50;1.50;;;;;21.03;48.07;101117.22;5340123;22;46778;-80
2022/05/20 05:08:38;;;;;;;;;2.50;2.25;;;;;21.05;48.53;101124.06;5053740;27;46441;-78
2022/05/20 05:11:03;;;;;;;;;2.75;2.00;;;;;21.05;48.54;101117.88;5062144;27;45626;-78
2022/05/20 05:13:28;;;;;;;;;2.50;1.50;;;;;21.05;48.47;101107.22;5058885;27;45640;-78
2022/05/20 05:15:54;;;;;;;;;2.25;2.00;;;;;21.06;48.21;101108.88;5063039;27;45888;-78
2022/05/20 05:18:23;;;;;;;;;2.50;2.25;;;;;21.14;48.81;101124.88;5070910;27;45686;-79
2022/05/20 05:20:51;;;;;;;;;3.00;2.00;;;;;21.11;48.25;101106.53;5093844;27;45660;-77
2022/05/20 05:23:18;;;;;;;;;3.00;3.00;;;;;21.07;48.63;101095.41;5076548;27;45783;-80
2022/05/20 05:25:44;;;;;;;;;2.50;1.75;;;;;21.17;48.68;101106.75;5067418;27;45636;-79
2022/05/20 05:28:10;;;;;;;;;2.25;2.00;;;;;21.19;48.63;101102.09;5071628;27;45794;-78
2022/05/20 05:30:35;;;;;;;;;2.25;2.25;;;;;21.23;48.38;101103.44;5065214;27;45983;-79
2022/05/20 05:33:01;;;;;;;;;2.00;2.00;;;;;21.18;48.71;101086.28;5060751;27;45719;-79
2022/05/20 05:35:28;;;;;;;;;4.25;4.00;;;;;21.28;48.63;101101.09;5071053;27;46406;-81
2022/05/20 05:37:54;;;;;;;;;3.25;2.75;;;;;21.29;48.63;101096.59;5072662;27;46042;-80
2022/05/20 05:40:22;;;;;;;;;3.25;2.50;;;;;21.25;48.80;101080.13;5071315;27;46041;-81
2022/05/20 05:46:58;;;;;;;;;2.25;2.00;;;;;21.32;48.92;101073.09;5008253;28;46189;-79
2022/05/20 05:49:24;;;;;;;;;3.00;2.75;;;;;21.20;48.94;101038.97;4978699;28;46260;-79
2022/05/20 06:01:58;;;;;;;;;3.25;3.25;;;;;21.18;49.69;101056.97;4891645;28;45982;-78
2022/05/20 06:04:24;;;;;;;;;5.00;4.25;;;;;21.30;49.79;101082.28;4899677;28;45886;-79
2022/05/20 06:06:53;;;;;;;;;5.00;3.75;;;;;21.28;49.66;101076.28;4887210;28;45916;-79
2022/05/20 06:09:28;;;;;;;;;3.75;3.75;;;;;21.19;50.07;101074.63;4900078;28;46807;-78
2022/05/20 06:11:54;;;;;;;;;6.25;5.00;;;;;21.29;49.84;101085.94;4892657;28;46540;-78
2022/05/20 06:14:19;;;;;;;;;5.75;4.00;;;;;21.36;50.50;101086.94;4893571;29;45729;-79
2022/05/20 06:23:25;;;;;;;;;5.25;4.00;;;;;21.45;52.32;101061.94;4835239;29;46061;-78
2022/05/20 06:25:51;;;;;;;;;5.75;5.75;;;;;21.38;51.99;101036.94;4815087;29;45609;-79
2022/05/20 06:28:46;;;;;;;;;4.75;4.75;;;;;21.44;52.46;100995.44;4803996;29;45796;-79
2022/05/20 06:31:43;;;;;;;;;6.75;4.75;;;;;21.41;52.67;100985.97;4805438;29;45669;-79
2022/05/20 06:34:09;;;;;;;;;6.50;6.50;;;;;21.27;53.62;100967.97;4814255;29;46128;-79
2022/05/20 06:39:57;;;;;;;;;5.75;5.50;;;;;21.28;53.81;101022.97;4993497;28;45647;-78
2022/05/20 06:42:23;;;;;;;;;7.00;7.00;;;;;21.23;53.78;101036.78;4993347;28;47041;-78
2022/05/20 06:51:36;;;;;;;;;5.75;5.00;;;;;21.20;53.80;100991.84;4935563;28;45786;-79
2022/05/20 06:54:04;;;;;;;;;5.25;5.00;;;;;21.22;53.61;100922.34;4933560;28;45644;-78
2022/05/20 06:56:30;;;;;;;;;4.25;4.25;;;;;21.16;54.34;100907.06;4943307;28;45487;-77
2022/05/20 06:58:57;;;;;;;;;6.25;5.75;;;;;21.15;54.52;100855.59;5014305;28;45688;-76
2022/05/20 07:01:23;;;;;;;;;7.00;6.25;;;;;21.18;54.87;100819.78;5012895;28;45707;-77
2022/05/20 07:03:49;;;;;;;;;5.25;4.50;;;;;21.16;54.70;100825.25;5012723;28;45942;-77
2022/05/20 07:06:15;;;;;;;;;5.00;5.00;;;;;21.15;55.22;100812.13;5009453;28;45637;-76
2022/05/20 07:08:43;;;;;;;;;7.00;7.00;;;;;21.21;55.41;100808.78;5012410;28;45684;-75
2022/05/20 07:11:08;;;;;;;;;6.25;5.50;;;;;21.17;55.42;100799.44;5012521;28;45783;-77
2022/05/20 07:13:33;;;;;;;;;6.00;5.25;;;;;21.17;55.92;100804.78;5013946;28;46833;-81
2022/05/20 07:15:59;;;;;;;;;6.25;6.00;;;;;21.22;55.55;100821.91;5013561;28;45681;-81
2022/05/20 07:18:27;;;;;;;;;8.00;7.25;;;;;21.16;55.95;100809.28;5014523;28;45558;-81
2022/05/20 07:27:35;;;;;;;;;10.00;9.00;;;;;21.35;56.53;100866.69;5023412;28;46006;-81
2022/05/20 07:30:01;;;;;;;;;13.50;11.50;;;;;21.41;56.79;100866.00;5075365;28;45655;-83
2022/05/20 07:32:26;;;;;;;;;32.25;30.25;;;;;21.35;56.66;100845.34;5075190;28;45823;-79
2022/05/20 07:34:51;;;;;;;;;43.50;36.50;;;;;21.39;56.73;100864.50;5074884;28;45502;-84
2022/05/20 07:37:17;;;;;;;;;15.25;13.25;;;;;21.37;56.59;100866.53;5074785;28;45752;-88
2022/05/20 07:39:43;;;;;;;;;16.50;16.00;;;;;21.44;56.60;100884.31;5075018;28;45502;-85
2022/05/20 07:42:08;;;;;;;;;31.25;25.00;;;;;21.52;56.68;100897.63;5075468;28;45819;-84
2022/05/20 07:44:36;;;;;;;;;11.50;9.25;;;;;21.51;56.86;100906.63;5074849;28;46735;-83
2022/05/20 07:47:02;;;;;;;;;13.00;10.00;;;;;21.57;56.65;100942.44;5074642;28;46339;-86
2022/05/20 07:49:30;;;;;;;;;11.25;8.75;;;;;21.61;56.76;100957.91;5075979;28;45756;-85
2022/05/20 07:52:02;;;;;;;;;10.00;8.75;;;;;21.57;57.28;100959.25;5078478;28;45640;-91
2022/05/20 07:54:34;;;;;;;;;7.50;7.25;;;;;21.49;57.31;101004.59;5088351;28;46634;-88
2022/05/20 07:57:04;;;;;;;;;9.50;8.25;;;;;21.54;58.03;100983.59;5071091;28;45505;-90
2022/05/20 07:59:44;;;;;;;;;10.00;8.00;;;;;21.42;58.19;100966.31;5088569;28;45555;-89
2022/05/20 08:02:16;;;;;;;;;10.75;9.00;;;;;21.46;58.48;100977.47;5097989;28;45484;-81
2022/05/20 08:04:58;;;;;;;;;10.25;10.00;;;;;21.41;58.95;100945.16;5098716;28;45649;-79
2022/05/20 08:07:35;;;;;;;;;10.00;9.25;;;;;21.42;59.72;100957.47;5082602;27;46387;-81
2022/05/20 08:10:07;;;;;;;;;10.00;9.00;;;;;21.36;58.92;100940.34;5075289;28;45602;-89
2022/05/20 08:12:33;;;;;;;;;9.75;8.75;;;;;21.26;58.88;100908.53;5062914;28;45607;-80
2022/05/20 08:14:58;;;;;;;;;10.00;9.50;;;;;21.20;60.01;100914.56;5053993;28;46630;-80
2022/05/20 08:17:25;;;;;;;;;11.50;11.50;;;;;21.28;59.16;100924.34;5053682;28;45889;-81
2022/05/20 08:19:52;;;;;;;;;8.75;8.00;;;;;21.29;59.31;100928.69;5053381;28;45818;-80
2022/05/20 08:22:22;;;;;;;;;9.00;8.00;;;;;21.25;59.88;100938.03;5035082;28;46011;-79
2022/05/20 08:24:52;;;;;;;;;14.00;10.00;;;;;21.26;59.65;100913.03;5053195;28;45943;-79
2022/05/20 08:27:22;;;;;;;;;8.00;7.75;;;;;21.16;59.56;100896.41;5052983;28;45877;-81
2022/05/20 08:29:49;;;;;;;;;9.75;8.00;;;;;21.20;59.62;100908.38;5053591;28;45688;-80
2022/05/20 08:32:15;;;;;;;;;12.00;9.00;;;;;21.11;59.55;100910.19;5053348;28;45685;-81
2022/05/20 08:34:45;;;;;;;;;12.25;10.50;;;;;21.26;59.65;100919.19;5053043;28;45673;-79
2022/05/20 08:37:15;;;;;;;;;9.75;8.75;;;;;21.27;59.96;100910.19;5055354;28;45605;-84
2022/05/20 08:39:44;;;;;;;;;10.75;10.75;;;;;21.26;60.11;100963.69;5056777;28;45726;-82
2022/05/20 08:42:17;;;;;;;;;10.00;9.75;;;;;21.22;60.18;100997.81;5057121;28;45565;-83
2022/05/20 08:45:27;;;;;;;;;11.50;11.00;;;;;21.31;60.63;101071.47;5056506;28;45813;-79
2022/05/20 08:51:01;;;;;;;;;13.75;12.75;;;;;20.95;72.83;101019.44;5056810;28;45668;-79
2022/05/20 08:53:43;;;;;;;;;14.75;13.75;;;;;20.87;77.79;100991.00;5056564;28;45701;-78
2022/05/20 08:56:15;;;;;;;;;16.50;15.75;;;;;20.76;81.37;100954.03;5056368;28;46832;-80
2022/05/20 08:58:49;;;;;;;;;14.50;13.00;;;;;20.65;83.06;100938.38;5056470;28;46309;-79
2022/05/20 09:01:15;;;;;;;;;18.00;17.00;;;;;20.55;84.82;100971.50;5055746;28;45791;-78
2022/05/20 09:03:42;;;;;;;;;18.25;15.50;;;;;20.43;86.40;100944.34;5037683;28;45509;-77
2022/05/20 09:06:15;;;;;;;;;17.50;17.25;;;;;20.43;87.34;100942.53;5058179;27;45682;-79
2022/05/20 09:08:40;;;;;;;;;17.50;16.00;;;;;20.30;88.17;100941.28;5074617;28;48072;-81
2022/05/20 09:11:12;;;;;;;;;20.25;18.75;;;;;20.38;88.81;100946.66;5076697;28;45639;-79
2022/05/20 09:16:25;;;;;;;;;17.00;15.75;;;;;20.36;89.39;100946.81;5075986;28;45577;-79
2022/05/20 09:19:06;;;;;;;;;19.50;17.75;;;;;20.34;89.90;100930.22;5076096;28;45637;-80
2022/05/20 09:21:48;;;;;;;;;19.50;19.00;;;;;20.31;89.88;100921.66;5076170;28;45476;-79
2022/05/20 09:24:18;;;;;;;;;23.25;20.00;;;;;20.28;90.08;100911.34;5076079;28;45780;-78
2022/05/20 09:26:51;;;;;;;;;21.25;19.75;;;;;20.35;89.98;100899.91;5075573;28;45638;-79
2022/05/20 09:29:47;;;;;;;;;21.50;20.25;;;;;20.42;89.99;100894.75;5076062;28;45503;-80
2022/05/20 09:32:58;;;;;;;;;23.00;21.25;;;;;20.37;89.71;100895.25;4993636;28;45609;-80
2022/05/20 09:35:30;;;;;;;;;20.25;17.00;;;;;20.47;89.78;100973.13;4991844;28;45781;-79
2022/05/20 09:41:20;;;;;;;;;20.25;19.00;;;;;20.35;87.49;101142.09;4991091;28;45732;-79
2022/05/20 09:43:59;;;;;;;;;20.50;19.25;;;;;20.29;87.47;101004.34;4992301;28;45566;-78
2022/05/20 09:46:48;;;;;;;;;20.50;19.00;;;;;20.28;88.65;100844.84;4976653;28;45670;-78
2022/05/20 09:49:32;;;;;;;;;19.25;18.75;;;;;20.29;89.37;100790.63;4992603;28;45677;-79
2022/05/20 09:52:00;;;;;;;;;21.50;20.25;;;;;20.38;89.37;100849.03;4993169;28;46025;-80
2022/05/20 09:58:10;;;;;;;;;24.75;24.25;;;;;20.47;88.44;100895.09;4993296;28;45642;-82
2022/05/20 10:01:20;;;;;;;;;24.50;23.50;;;;;20.52;88.75;100831.53;4993162;28;45606;-82
2022/05/20 10:11:38;;;;;;;;;27.25;26.75;;;;;20.81;89.64;100821.19;4935259;28;45939;-80
2022/05/20 10:18:03;;;;;;;;;29.00;27.00;;;;;21.19;90.27;100877.41;4803190;29;46165;-78
2022/05/20 10:24:51;;;;;;;;;30.00;27.50;;;;;21.29;90.19;100894.03;5083585;22;45859;-89
2022/05/20 10:33:51;;;;;;;;;27.75;25.50;;;;;21.41;89.91;100884.66;4979192;28;46102;-89
2022/05/20 10:36:22;;;;;;;;;28.75;27.25;;;;;21.52;90.21;100876.28;4978182;28;45743;-91
2022/05/20 10:39:06;;;;;;;;;22.75;21.50;;;;;21.60;90.38;100872.72;4980335;28;45930;-89
2022/05/20 10:42:09;;;;;;;;;27.00;22.50;;;;;21.70;90.24;100858.19;4969889;28;48371;-89
2022/05/20 10:51:04;;;;;;;;;27.50;25.75;;;;;21.99;90.56;100844.19;4982224;28;46168;-85
2022/05/20 10:53:45;;;;;;;;;27.25;25.25;;;;;22.03;89.07;100828.66;4959965;28;46930;-88
2022/05/20 10:56:50;;;;;;;;;29.50;26.75;;;;;22.05;89.06;100854.19;4973265;28;45943;-86
2022/05/20 10:59:31;;;;;;;;;30.25;28.75;;;;;22.07;89.09;100862.84;4978366;28;45938;-89
2022/05/20 11:02:27;;;;;;;;;27.25;27.25;;;;;22.12;88.41;100865.81;4986376;28;48233;-85
2022/05/20 11:05:06;;;;;;;;;28.00;26.50;;;;;22.17;88.46;100867.94;4985315;28;46071;-88
2022/05/20 11:08:09;;;;;;;;;26.50;26.25;;;;;22.23;87.55;100869.91;4992822;28;46235;-91
2022/05/20 11:11:01;;;;;;;;;29.25;26.75;;;;;22.28;88.66;100875.53;5043328;28;46016;-83
2022/05/20 11:13:57;;;;;;;;;33.25;30.50;;;;;22.39;88.18;100891.16;5036704;28;47487;-81
2022/05/20 11:16:47;;;;;;;;;27.00;26.25;;;;;22.46;87.01;100913.44;5053243;28;46283;-85
2022/05/20 11:19:34;;;;;;;;;28.50;27.50;;;;;22.48;87.99;100914.09;5049259;28;45879;-87
2022/05/20 11:22:47;;;;;;;;;34.75;26.75;;;;;22.56;87.48;100923.91;5037078;28;45617;-87
2022/05/20 11:25:28;;;;;;;;;31.00;28.25;;;;;22.62;86.67;100933.03;5046540;28;46373;-87
2022/05/20 11:27:56;;;;;;;;;30.75;29.25;;;;;22.66;87.04;100929.00;5052454;28;46493;-84
2022/05/20 11:30:52;;;;;;;;;28.75;26.25;;;;;22.74;86.97;100928.94;5047417;28;45704;-83
2022/05/20 11:33:58;;;;;;;;;26.00;25.00;;;;;22.84;87.17;100926.84;5036170;28;45846;-84
2022/05/20 11:37:02;;;;;;;;;24.25;23.50;;;;;22.94;86.91;100912.22;5053355;28;45847;-87
2022/05/20 11:40:03;;;;;;;;;26.00;25.00;;;;;23.06;86.91;100915.28;4971394;28;46054;-87
2022/05/20 11:43:13;;;;;;;;;17.75;16.75;;;;;23.01;86.00;100896.28;4968637;28;45880;-87
2022/05/20 11:46:30;;;;;;;;;19.00;18.25;;;;;23.20;85.44;100900.28;4971579;28;45724;-86
2022/05/20 11:49:38;;;;;;;;;22.50;20.00;;;;;23.40;85.76;100907.56;5231784;22;46293;-84
2022/05/20 11:52:32;;;;;;;;;17.25;17.25;;;;;23.45;84.20;100896.28;5059362;27;47278;-86
2022/05/20 11:55:17;;;;;;;;;15.00;14.50;;;;;23.64;84.22;100894.94;5077748;27;45799;-86
2022/05/20 11:57:53;;;;;;;;;14.00;14.00;;;;;23.56;83.81;100846.88;5064532;27;45915;-85
2022/05/20 12:00:21;;;;;;;;;13.50;13.00;;;;;23.75;82.91;100862.34;5086744;27;45635;-85
2022/05/20 12:03:07;;;;;;;;;13.00;13.00;;;;;23.85;82.29;100860.19;5072836;27;46463;-83
2022/05/20 12:05:44;;;;;;;;;15.00;14.25;;;;;23.94;81.74;100867.06;5053601;28;45870;-84
2022/05/20 12:08:37;;;;;;;;;11.00;11.00;;;;;24.07;81.36;100885.97;5072113;27;45709;-82
2022/05/20 12:11:18;;;;;;;;;14.25;14.00;;;;;24.16;81.30;100866.06;5055407;28;47675;-86
2022/05/20 12:14:00;;;;;;;;;11.75;11.00;;;;;24.27;80.69;100861.25;5093883;27;46681;-81
2022/05/20 12:16:27;;;;;;;;;12.00;12.00;;;;;24.33;80.35;100869.38;5076994;27;46023;-86
2022/05/20 12:25:42;;;;;;;;;13.00;12.75;;;;;24.40;79.72;100874.78;5032591;28;46045;-86
2022/05/20 12:28:32;;;;;;;;;12.00;11.00;;;;;24.51;78.09;100898.34;5032376;28;46012;-83
2022/05/20 12:31:19;;;;;;;;;10.00;9.00;;;;;24.51;79.46;100871.56;5016272;28;45721;-83
2022/05/20 12:34:49;;;;;;;;;13.25;13.00;;;;;24.52;78.99;100903.53;5015852;28;48053;-86
2022/05/20 12:37:42;;;;;;;;;12.00;10.75;;;;;24.49;78.60;100911.13;5032132;28;46169;-86
2022/05/20 12:40:26;;;;;;;;;11.50;11.00;;;;;24.40;77.11;100909.63;5016095;28;46022;-87
2022/05/20 12:43:40;;;;;;;;;13.75;12.75;;;;;24.26;79.90;100911.31;5033680;28;45682;-86
2022/05/20 12:46:39;;;;;;;;;11.75;11.25;;;;;24.22;79.63;100894.81;4896216;28;46557;-86
2022/05/20 12:49:27;;;;;;;;;12.00;11.00;;;;;24.21;79.63;100917.25;4907989;28;47549;-85
2022/05/20 12:52:14;;;;;;;;;10.25;10.25;;;;;24.17;78.37;100912.44;4930398;28;45760;-84
2022/05/20 12:54:43;;;;;;;;;13.75;12.75;;;;;24.20;78.72;100922.78;4918294;28;45861;-86
2022/05/20 12:57:14;;;;;;;;;15.00;14.00;;;;;24.18;78.12;100927.53;4928321;28;45688;-85
2022/05/20 12:59:40;;;;;;;;;10.50;10.00;;;;;24.15;79.41;100942.06;4931068;28;48284;-85
2022/05/20 13:02:16;;;;;;;;;11.25;11.00;;;;;24.15;78.15;100951.94;4974921;28;45695;-86
2022/05/20 13:04:57;;;;;;;;;13.50;13.00;;;;;23.97;78.13;100952.34;4961845;28;45755;-89
2022/05/20 13:07:23;;;;;;;;;11.00;10.50;;;;;23.94;78.73;100967.97;4958236;28;45807;-89
2022/05/20 13:09:48;;;;;;;;;10.00;9.75;;;;;23.88;75.77;100998.16;4960683;28;45810;-88
2022/05/20 13:12:20;;;;;;;;;12.00;10.75;;;;;23.80;78.16;101020.50;4972320;28;45722;-87
2022/05/20 13:14:59;;;;;;;;;7.25;7.00;;;;;23.62;77.24;100993.28;4979179;28;45836;-86
2022/05/20 13:17:25;;;;;;;;;8.00;8.00;;;;;23.53;76.40;101035.34;4978006;28;46705;-87
2022/05/20 13:19:58;;;;;;;;;8.25;7.25;;;;;23.34;78.44;101009.91;4956084;28;46069;-88
2022/05/20 13:22:26;;;;;;;;;7.75;7.00;;;;;23.22;76.39;101000.66;4980703;28;45794;-84
2022/05/20 13:25:06;;;;;;;;;6.25;6.25;;;;;23.17;76.98;101020.94;5064004;28;45855;-87
2022/05/20 13:27:37;;;;;;;;;6.00;6.00;;;;;23.04;76.82;101034.94;5069848;27;47919;-83
2022/05/20 13:33:16;;;;;;;;;5.00;5.00;;;;;22.77;77.43;101064.84;5087584;27;45539;-87
2022/05/20 13:35:52;;;;;;;;;4.00;4.00;;;;;22.68;74.37;101079.22;5093046;27;45686;-85
2022/05/20 13:38:18;;;;;;;;;6.00;6.00;;;;;22.50;75.73;101064.31;5088104;27;45651;-84
2022/05/20 13:40:45;;;;;;;;;5.00;4.00;;;;;22.42;75.29;101066.19;5078714;27;46569;-84
2022/05/20 13:43:29;;;;;;;;;5.75;5.00;;;;;22.29;75.31;101066.75;5077382;27;45652;-86
2022/05/20 13:51:33;;;;;;;;;8.00;7.75;;;;;22.33;73.98;101081.41;5074183;28;45665;-87
2022/05/20 13:54:04;;;;;;;;;7.75;7.00;;;;;22.31;75.31;101110.13;5045991;28;45682;-86
2022/05/20 13:56:37;;;;;;;;;7.25;7.25;;;;;22.21;75.03;101106.00;5074705;28;45658;-88
2022/05/20 13:59:34;;;;;;;;;8.00;7.75;;;;;22.00;74.86;101141.25;5062503;28;47466;-88
2022/05/20 14:02:21;;;;;;;;;7.00;7.00;;;;;21.83;74.91;101116.41;5079088;28;45957;-82
2022/05/20 14:04:49;;;;;;;;;9.00;8.00;;;;;21.80;74.31;101123.91;5079283;28;45510;-86
2022/05/20 14:07:28;;;;;;;;;9.00;8.00;;;;;21.72;75.40;101144.25;5077466;22;45841;-87
2022/05/20 14:09:57;;;;;;;;;6.00;6.00;;;;;21.70;74.51;101161.44;5055466;28;48739;-86
2022/05/20 14:12:26;;;;;;;;;7.00;7.00;;;;;21.62;72.60;101188.09;5056173;28;45995;-86
2022/05/20 14:15:21;;;;;;;;;7.75;6.25;;;;;21.48;73.38;101156.78;5055739;28;46146;-85
2022/05/20 14:18:04;;;;;;;;;7.00;6.50;;;;;21.33;73.90;101154.75;5021497;28;45822;-85
2022/05/20 14:20:35;;;;;;;;;6.50;6.50;;;;;21.34;73.51;101169.75;5056307;28;46498;-85
2022/05/20 14:23:01;;;;;;;;;6.25;6.25;;;;;21.25;72.33;101176.09;5056052;28;45918;-86
2022/05/20 14:25:30;;;;;;;;;8.00;6.50;;;;;21.04;72.51;101194.31;5058255;28;45760;-86
2022/05/20 14:28:14;;;;;;;;;7.25;6.50;;;;;21.00;71.73;101174.31;5058108;28;45573;-86
2022/05/20 14:30:45;;;;;;;;;7.00;6.25;;;;;20.83;71.56;101176.13;5058176;28;47068;-85
2022/05/20 14:33:34;;;;;;;;;7.75;7.25;;;;;20.79;71.08;101174.75;5060156;28;45835;-83
2022/05/20 14:36:12;;;;;;;;;9.75;8.75;;;;;20.75;72.83;101178.75;5047335;28;45603;-87